sensor_id;sensor_type;location;lat;lon;timestamp;pressure;altitude;pressure_sealevel;temperature;humidity
51452;BME280;37521;52.020;-1.740;2022-12-28T00:02:21;99082.38;;;7.26;100.00
51452;BME280;37521;52.020;-1.740;2022-12-28T00:04:49;99071.59;;;7.32;100.00
51452;BME280;37521;52.020;-1.740;2022-12-28T00:07:18;99077.78;;;7.31;100.00
51452;BME280;37521;52.020;-1.740;2022-12-28T00:09:46;99075.06;;;7.32;100.00
51452;BME280;37521;52.020;-1.740;2022-12-28T00:12:15;99083.97;;;7.30;100.00
51452;BME280;37521;52.020;-1.740;2022-12-28T00:14:44;99087.81;;;7.23;100.00
51452;BME280;37521;52.020;-1.740;2022-12-28T00:17:12;99087.94;;;7.20;100.00
51452;BME280;37521;52.020;-1.740;2022-12-28T00:19:40;99088.84;;;7.19;100.00
51452;BME280;37521;52.020;-1.740;2022-12-28T00:22:09;99084.53;;;7.18;100.00
51452;BME280;37521;52.020;-1.740;2022-12-28T00:24:37;99080.50;;;7.10;100.00
51452;BME280;37521;52.020;-1.740;2022-12-28T00:27:05;99071.06;;;7.06;100.00
51452;BME280;37521;52.020;-1.740;2022-12-28T00:29:35;99080.00;;;7.02;100.00
51452;BME280;37521;52.020;-1.740;2022-12-28T00:32:04;99093.41;;;6.96;100.00
51452;BME280;37521;52.020;-1.740;2022-12-28T00:34:32;99094.31;;;6.95;100.00
51452;BME280;37521;52.020;-1.740;2022-12-28T00:37:00;99091.13;;;6.89;100.00
51452;BME280;37521;52.020;-1.740;2022-12-28T00:39:39;99109.78;;;6.82;100.00
51452;BME280;37521;52.020;-1.740;2022-12-28T00:42:08;99111.53;;;6.82;100.00
51452;BME280;37521;52.020;-1.740;2022-12-28T00:44:38;99110.91;;;6.77;100.00
51452;BME280;37521;52.020;-1.740;2022-12-28T00:47:07;99115.59;;;6.70;100.00
51452;BME280;37521;52.020;-1.740;2022-12-28T00:49:38;99123.66;;;6.66;100.00
51452;BME280;37521;52.020;-1.740;2022-12-28T00:52:06;99122.06;;;6.62;100.00
51452;BME280;37521;52.020;-1.740;2022-12-28T00:54:34;99111.72;;;6.59;100.00
51452;BME280;37521;52.020;-1.740;2022-12-28T00:57:03;99113.44;;;6.60;100.00
51452;BME280;37521;52.020;-1.740;2022-12-28T00:59:32;99122.50;;;6.52;100.00
51452;BME280;37521;52.020;-1.740;2022-12-28T01:02:01;99109.66;;;6.46;100.00
51452;BME280;37521;52.020;-1.740;2022-12-28T01:04:30;99113.97;;;6.47;100.00
51452;BME280;37521;52.020;-1.740;2022-12-28T01:06:58;99106.09;;;6.47;100.00
51452;BME280;37521;52.020;-1.740;2022-12-28T01:09:30;99107.94;;;6.45;100.00
51452;BME280;37521;52.020;-1.740;2022-12-28T01:11:58;99102.91;;;6.41;100.00
51452;BME280;37521;52.020;-1.740;2022-12-28T01:14:26;99108.22;;;6.39;100.00
51452;BME280;37521;52.020;-1.740;2022-12-28T01:16:54;99095.94;;;6.40;100.00
51452;BME280;37521;52.020;-1.740;2022-12-28T01:19:24;99114.38;;;6.38;100.00
51452;BME280;37521;52.020;-1.740;2022-12-28T01:21:52;99110.19;;;6.34;100.00
51452;BME280;37521;52.020;-1.740;2022-12-28T01:24:21;99105.00;;;6.33;100.00
51452;BME280;37521;52.020;-1.740;2022-12-28T01:26:49;99106.00;;;6.30;100.00
51452;BME280;37521;52.020;-1.740;2022-12-28T01:29:18;99105.41;;;6.23;100.00
51452;BME280;37521;52.020;-1.740;2022-12-28T01:31:47;99107.44;;;6.17;100.00
51452;BME280;37521;52.020;-1.740;2022-12-28T01:34:16;99112.03;;;6.12;100.00
51452;BME280;37521;52.020;-1.740;2022-12-28T01:36:47;99105.47;;;6.01;100.00
51452;BME280;37521;52.020;-1.740;2022-12-28T01:39:15;99117.25;;;5.91;100.00
51452;BME280;37521;52.020;-1.740;2022-12-28T01:41:43;99118.50;;;5.81;100.00
51452;BME280;37521;52.020;-1.740;2022-12-28T01:44:39;99109.88;;;5.79;100.00
51452;BME280;37521;52.020;-1.740;2022-12-28T01:47:11;99124.00;;;5.75;100.00
51452;BME280;37521;52.020;-1.740;2022-12-28T01:49:46;99120.97;;;5.64;100.00
51452;BME280;37521;52.020;-1.740;2022-12-28T01:52:20;99109.16;;;5.54;100.00
51452;BME280;37521;52.020;-1.740;2022-12-28T01:54:51;99100.03;;;5.42;100.00
51452;BME280;37521;52.020;-1.740;2022-12-28T01:57:25;99096.25;;;5.27;100.00
51452;BME280;37521;52.020;-1.740;2022-12-28T02:00:00;99106.34;;;5.14;100.00
51452;BME280;37521;52.020;-1.740;2022-12-28T02:02:39;99103.00;;;5.11;100.00
51452;BME280;37521;52.020;-1.740;2022-12-28T02:05:11;99101.41;;;5.07;100.00
51452;BME280;37521;52.020;-1.740;2022-12-28T02:07:46;99098.78;;;5.07;100.00
51452;BME280;37521;52.020;-1.740;2022-12-28T02:10:19;99104.00;;;5.07;100.00
51452;BME280;37521;52.020;-1.740;2022-12-28T02:13:08;99093.44;;;5.10;100.00
51452;BME280;37521;52.020;-1.740;2022-12-28T02:15:37;99099.41;;;5.13;100.00
51452;BME280;37521;52.020;-1.740;2022-12-28T02:18:05;99095.00;;;5.14;100.00
51452;BME280;37521;52.020;-1.740;2022-12-28T02:20:42;99087.97;;;5.16;100.00
51452;BME280;37521;52.020;-1.740;2022-12-28T02:23:29;99087.84;;;5.19;100.00
51452;BME280;37521;52.020;-1.740;2022-12-28T02:26:19;99081.59;;;5.23;100.00
51452;BME280;37521;52.020;-1.740;2022-12-28T02:29:20;99073.50;;;5.29;100.00
51452;BME280;37521;52.020;-1.740;2022-12-28T02:31:57;99065.44;;;5.34;100.00
51452;BME280;37521;52.020;-1.740;2022-12-28T02:34:31;99072.66;;;5.29;100.00
51452;BME280;37521;52.020;-1.740;2022-12-28T02:37:05;99057.19;;;5.23;100.00
51452;BME280;37521;52.020;-1.740;2022-12-28T02:39:37;99055.66;;;5.17;100.00
51452;BME280;37521;52.020;-1.740;2022-12-28T02:42:07;99059.97;;;5.18;100.00
51452;BME280;37521;52.020;-1.740;2022-12-28T02:44:38;99059.97;;;5.18;100.00
51452;BME280;37521;52.020;-1.740;2022-12-28T02:47:23;99055.66;;;5.17;100.00
51452;BME280;37521;52.020;-1.740;2022-12-28T02:50:12;99046.91;;;5.18;100.00
51452;BME280;37521;52.020;-1.740;2022-12-28T02:53:01;99043.19;;;5.24;100.00
51452;BME280;37521;52.020;-1.740;2022-12-28T02:55:43;99043.78;;;5.30;100.00
51452;BME280;37521;52.020;-1.740;2022-12-28T03:01:47;99026.16;;;5.35;100.00
51452;BME280;37521;52.020;-1.740;2022-12-28T03:04:27;99029.78;;;5.31;100.00
51452;BME280;37521;52.020;-1.740;2022-12-28T03:07:06;99024.66;;;5.28;100.00
51452;BME280;37521;52.020;-1.740;2022-12-28T03:09:57;99023.09;;;5.24;100.00
51452;BME280;37521;52.020;-1.740;2022-12-28T03:12:34;99021.09;;;5.31;100.00
51452;BME280;37521;52.020;-1.740;2022-12-28T03:15:08;99020.78;;;5.38;100.00
51452;BME280;37521;52.020;-1.740;2022-12-28T03:17:43;99017.13;;;5.42;100.00
51452;BME280;37521;52.020;-1.740;2022-12-28T03:20:30;99010.97;;;5.43;100.00
51452;BME280;37521;52.020;-1.740;2022-12-28T03:23:18;99018.69;;;5.46;100.00
51452;BME280;37521;52.020;-1.740;2022-12-28T03:26:09;99021.06;;;5.53;100.00
51452;BME280;37521;52.020;-1.740;2022-12-28T03:28:59;99006.00;;;5.58;100.00
51452;BME280;37521;52.020;-1.740;2022-12-28T03:31:47;99009.91;;;5.68;100.00
51452;BME280;37521;52.020;-1.740;2022-12-28T03:34:17;99009.56;;;5.77;100.00
51452;BME280;37521;52.020;-1.740;2022-12-28T03:36:53;99003.13;;;5.84;100.00
51452;BME280;37521;52.020;-1.740;2022-12-28T03:39:33;98991.53;;;5.90;100.00
51452;BME280;37521;52.020;-1.740;2022-12-28T03:42:13;98995.75;;;5.94;100.00
51452;BME280;37521;52.020;-1.740;2022-12-28T03:45:05;98986.75;;;5.99;100.00
51452;BME280;37521;52.020;-1.740;2022-12-28T03:47:38;98972.69;;;6.02;100.00
51452;BME280;37521;52.020;-1.740;2022-12-28T03:50:10;98981.41;;;6.03;100.00
51452;BME280;37521;52.020;-1.740;2022-12-28T03:52:39;98983.22;;;6.00;100.00
51452;BME280;37521;52.020;-1.740;2022-12-28T03:55:08;98970.94;;;6.03;100.00
51452;BME280;37521;52.020;-1.740;2022-12-28T03:57:37;98981.25;;;6.06;100.00
51452;BME280;37521;52.020;-1.740;2022-12-28T04:00:12;98963.66;;;6.09;100.00
51452;BME280;37521;52.020;-1.740;2022-12-28T04:02:41;98976.78;;;6.08;100.00
51452;BME280;37521;52.020;-1.740;2022-12-28T04:05:12;98978.56;;;6.07;100.00
51452;BME280;37521;52.020;-1.740;2022-12-28T04:07:42;98962.91;;;6.06;100.00
51452;BME280;37521;52.020;-1.740;2022-12-28T04:10:11;98963.75;;;6.06;100.00
51452;BME280;37521;52.020;-1.740;2022-12-28T04:12:40;98946.34;;;6.05;100.00
51452;BME280;37521;52.020;-1.740;2022-12-28T04:15:21;98949.03;;;6.04;100.00
51452;BME280;37521;52.020;-1.740;2022-12-28T04:17:50;98937.75;;;6.01;100.00
51452;BME280;37521;52.020;-1.740;2022-12-28T04:20:19;98934.25;;;6.03;100.00
51452;BME280;37521;52.020;-1.740;2022-12-28T04:22:49;98923.88;;;5.99;100.00
51452;BME280;37521;52.020;-1.740;2022-12-28T04:25:18;98931.91;;;5.96;100.00
51452;BME280;37521;52.020;-1.740;2022-12-28T04:27:47;98919.75;;;5.94;100.00
51452;BME280;37521;52.020;-1.740;2022-12-28T04:30:37;98918.22;;;5.88;100.00
51452;BME280;37521;52.020;-1.740;2022-12-28T04:33:06;98917.47;;;5.86;100.00
51452;BME280;37521;52.020;-1.740;2022-12-28T04:35:36;98902.81;;;5.82;100.00
51452;BME280;37521;52.020;-1.740;2022-12-28T04:38:04;98902.00;;;5.80;100.00
51452;BME280;37521;52.020;-1.740;2022-12-28T04:40:33;98894.06;;;5.82;100.00
51452;BME280;37521;52.020;-1.740;2022-12-28T04:43:01;98886.28;;;5.80;100.00
51452;BME280;37521;52.020;-1.740;2022-12-28T04:45:29;98884.59;;;5.79;100.00
51452;BME280;37521;52.020;-1.740;2022-12-28T04:47:58;98882.75;;;5.81;100.00
51452;BME280;37521;52.020;-1.740;2022-12-28T04:50:27;98882.75;;;5.81;100.00
51452;BME280;37521;52.020;-1.740;2022-12-28T04:52:58;98886.28;;;5.80;100.00
51452;BME280;37521;52.020;-1.740;2022-12-28T04:55:27;98868.13;;;5.77;100.00
51452;BME280;37521;52.020;-1.740;2022-12-28T04:57:59;98863.00;;;5.74;100.00
51452;BME280;37521;52.020;-1.740;2022-12-28T05:00:27;98865.78;;;5.71;100.00
51452;BME280;37521;52.020;-1.740;2022-12-28T05:02:57;98856.91;;;5.73;100.00
51452;BME280;37521;52.020;-1.740;2022-12-28T05:05:26;98843.91;;;5.72;100.00
51452;BME280;37521;52.020;-1.740;2022-12-28T05:07:54;98850.91;;;5.71;100.00
51452;BME280;37521;52.020;-1.740;2022-12-28T05:10:24;98842.31;;;5.68;100.00
51452;BME280;37521;52.020;-1.740;2022-12-28T05:12:53;98845.88;;;5.67;100.00
51452;BME280;37521;52.020;-1.740;2022-12-28T05:15:21;98844.38;;;5.61;100.00
51452;BME280;37521;52.020;-1.740;2022-12-28T05:17:50;98838.44;;;5.58;100.00
51452;BME280;37521;52.020;-1.740;2022-12-28T05:20:18;98838.44;;;5.58;100.00
51452;BME280;37521;52.020;-1.740;2022-12-28T05:22:47;98836.84;;;5.54;100.00
51452;BME280;37521;52.020;-1.740;2022-12-28T05:25:15;98833.47;;;5.52;100.00
51452;BME280;37521;52.020;-1.740;2022-12-28T05:27:45;98830.84;;;5.52;100.00
51452;BME280;37521;52.020;-1.740;2022-12-28T05:30:13;98826.53;;;5.51;100.00
51452;BME280;37521;52.020;-1.740;2022-12-28T05:32:41;98816.97;;;5.50;100.00
51452;BME280;37521;52.020;-1.740;2022-12-28T05:35:09;98809.13;;;5.50;100.00
51452;BME280;37521;52.020;-1.740;2022-12-28T05:37:38;98806.63;;;5.46;100.00
51452;BME280;37521;52.020;-1.740;2022-12-28T05:40:06;98807.56;;;5.45;100.00
51452;BME280;37521;52.020;-1.740;2022-12-28T05:42:35;98796.16;;;5.46;100.00
51452;BME280;37521;52.020;-1.740;2022-12-28T05:45:05;98789.22;;;5.45;100.00
51452;BME280;37521;52.020;-1.740;2022-12-28T05:47:34;98790.06;;;5.46;100.00
51452;BME280;37521;52.020;-1.740;2022-12-28T05:50:02;98787.53;;;5.44;100.00
51452;BME280;37521;52.020;-1.740;2022-12-28T05:52:31;98788.47;;;5.43;100.00
51452;BME280;37521;52.020;-1.740;2022-12-28T05:54:59;98772.75;;;5.43;100.00
51452;BME280;37521;52.020;-1.740;2022-12-28T05:57:27;98762.28;;;5.43;100.00
51452;BME280;37521;52.020;-1.740;2022-12-28T05:59:55;98760.44;;;5.45;100.00
51452;BME280;37521;52.020;-1.740;2022-12-28T06:02:25;98757.81;;;5.45;100.00
51452;BME280;37521;52.020;-1.740;2022-12-28T06:04:53;98758.59;;;5.47;100.00
51452;BME280;37521;52.020;-1.740;2022-12-28T06:07:22;98741.06;;;5.50;100.00
51452;BME280;37521;52.020;-1.740;2022-12-28T06:09:50;98733.97;;;5.52;100.00
51452;BME280;37521;52.020;-1.740;2022-12-28T06:12:18;98738.28;;;5.53;100.00
51452;BME280;37521;52.020;-1.740;2022-12-28T06:14:47;98734.69;;;5.55;100.00
51452;BME280;37521;52.020;-1.740;2022-12-28T06:17:15;98728.38;;;5.59;100.00
51452;BME280;37521;52.020;-1.740;2022-12-28T06:19:44;98725.69;;;5.61;100.00
51452;BME280;37521;52.020;-1.740;2022-12-28T06:22:13;98711.47;;;5.66;100.00
51452;BME280;37521;52.020;-1.740;2022-12-28T06:24:41;98706.00;;;5.71;100.00
51452;BME280;37521;52.020;-1.740;2022-12-28T06:27:09;98708.47;;;5.74;100.00
51452;BME280;37521;52.020;-1.740;2022-12-28T06:29:37;98704.81;;;5.78;100.00
51452;BME280;37521;52.020;-1.740;2022-12-28T06:32:06;98687.78;;;5.87;100.00
51452;BME280;37521;52.020;-1.740;2022-12-28T06:34:34;98686.81;;;5.89;100.00
51452;BME280;37521;52.020;-1.740;2022-12-28T06:37:03;98684.13;;;5.91;100.00
51452;BME280;37521;52.020;-1.740;2022-12-28T06:39:32;98686.69;;;5.92;100.00
51452;BME280;37521;52.020;-1.740;2022-12-28T06:42:00;98681.31;;;5.95;100.00
51452;BME280;37521;52.020;-1.740;2022-12-28T06:44:28;98680.44;;;5.95;100.00
51452;BME280;37521;52.020;-1.740;2022-12-28T06:46:56;98674.22;;;5.97;100.00
51452;BME280;37521;52.020;-1.740;2022-12-28T06:49:24;98672.53;;;5.96;100.00
51452;BME280;37521;52.020;-1.740;2022-12-28T06:51:52;98658.31;;;6.00;100.00
51452;BME280;37521;52.020;-1.740;2022-12-28T06:54:22;98660.66;;;6.07;100.00
51452;BME280;37521;52.020;-1.740;2022-12-28T06:56:50;98647.25;;;6.13;100.00
51452;BME280;37521;52.020;-1.740;2022-12-28T06:59:19;98643.38;;;6.20;100.00
51452;BME280;37521;52.020;-1.740;2022-12-28T07:01:47;98638.59;;;6.28;100.00
51452;BME280;37521;52.020;-1.740;2022-12-28T07:04:15;98627.97;;;6.31;100.00
51452;BME280;37521;52.020;-1.740;2022-12-28T07:06:44;98626.56;;;6.41;100.00
51452;BME280;37521;52.020;-1.740;2022-12-28T07:09:13;98621.00;;;6.47;100.00
51452;BME280;37521;52.020;-1.740;2022-12-28T07:11:43;98622.38;;;6.54;100.00
51452;BME280;37521;52.020;-1.740;2022-12-28T07:14:12;98615.84;;;6.63;100.00
51452;BME280;37521;52.020;-1.740;2022-12-28T07:16:40;98614.31;;;6.75;100.00
51452;BME280;37521;52.020;-1.740;2022-12-28T07:19:08;98605.88;;;6.86;100.00
51452;BME280;37521;52.020;-1.740;2022-12-28T07:21:38;98608.28;;;6.90;100.00
51452;BME280;37521;52.020;-1.740;2022-12-28T07:24:07;98590.56;;;6.94;100.00
51452;BME280;37521;52.020;-1.740;2022-12-28T07:26:36;98588.38;;;7.02;100.00
51452;BME280;37521;52.020;-1.740;2022-12-28T07:29:07;98585.69;;;7.03;100.00
51452;BME280;37521;52.020;-1.740;2022-12-28T07:31:37;98581.78;;;7.10;100.00
51452;BME280;37521;52.020;-1.740;2022-12-28T07:34:12;98569.84;;;7.21;100.00
51452;BME280;37521;52.020;-1.740;2022-12-28T07:36:41;98573.25;;;7.23;100.00
51452;BME280;37521;52.020;-1.740;2022-12-28T07:39:09;98567.22;;;7.21;100.00
51452;BME280;37521;52.020;-1.740;2022-12-28T07:41:38;98561.03;;;7.22;100.00
51452;BME280;37521;52.020;-1.740;2022-12-28T07:44:07;98561.03;;;7.22;100.00
51452;BME280;37521;52.020;-1.740;2022-12-28T07:46:36;98557.41;;;7.24;100.00
51452;BME280;37521;52.020;-1.740;2022-12-28T07:49:05;98552.91;;;7.26;100.00
51452;BME280;37521;52.020;-1.740;2022-12-28T07:51:35;98551.13;;;7.27;100.00
51452;BME280;37521;52.020;-1.740;2022-12-28T07:54:04;98542.50;;;7.25;100.00
51452;BME280;37521;52.020;-1.740;2022-12-28T07:56:33;98550.19;;;7.28;100.00
51452;BME280;37521;52.020;-1.740;2022-12-28T07:59:02;98541.41;;;7.29;100.00
51452;BME280;37521;52.020;-1.740;2022-12-28T08:01:34;98537.84;;;7.30;100.00
51452;BME280;37521;52.020;-1.740;2022-12-28T08:04:04;98537.06;;;7.28;100.00
51452;BME280;37521;52.020;-1.740;2022-12-28T08:06:34;98523.78;;;7.31;100.00
51452;BME280;37521;52.020;-1.740;2022-12-28T08:09:04;98532.41;;;7.33;100.00
51452;BME280;37521;52.020;-1.740;2022-12-28T08:11:34;98515.16;;;7.29;100.00
51452;BME280;37521;52.020;-1.740;2022-12-28T08:14:04;98524.97;;;7.25;100.00
51452;BME280;37521;52.020;-1.740;2022-12-28T08:16:36;98515.50;;;7.23;100.00
51452;BME280;37521;52.020;-1.740;2022-12-28T08:19:05;98513.78;;;7.22;100.00
51452;BME280;37521;52.020;-1.740;2022-12-28T08:21:35;98507.03;;;7.18;100.00
51452;BME280;37521;52.020;-1.740;2022-12-28T08:24:04;98503.66;;;7.16;100.00
51452;BME280;37521;52.020;-1.740;2022-12-28T08:26:35;98496.69;;;7.15;100.00
51452;BME280;37521;52.020;-1.740;2022-12-28T08:29:07;98489.75;;;7.14;100.00
51452;BME280;37521;52.020;-1.740;2022-12-28T08:31:39;98487.91;;;7.16;100.00
51452;BME280;37521;52.020;-1.740;2022-12-28T08:34:10;98491.44;;;7.15;100.00
51452;BME280;37521;52.020;-1.740;2022-12-28T08:36:39;98481.88;;;7.14;100.00
51452;BME280;37521;52.020;-1.740;2022-12-28T08:39:08;98479.25;;;7.14;100.00
51452;BME280;37521;52.020;-1.740;2022-12-28T08:41:36;98488.06;;;7.13;100.00
51452;BME280;37521;52.020;-1.740;2022-12-28T08:44:05;98470.63;;;7.12;100.00
51452;BME280;37521;52.020;-1.740;2022-12-28T08:46:34;98483.00;;;7.09;100.00
51452;BME280;37521;52.020;-1.740;2022-12-28T08:49:04;98475.03;;;7.11;100.00
51452;BME280;37521;52.020;-1.740;2022-12-28T08:51:34;98470.78;;;7.08;100.00
51452;BME280;37521;52.020;-1.740;2022-12-28T08:54:06;98476.22;;;7.05;100.00
51452;BME280;37521;52.020;-1.740;2022-12-28T08:56:36;98471.72;;;7.07;100.00
51452;BME280;37521;52.020;-1.740;2022-12-28T08:59:05;98456.16;;;7.04;100.00
51452;BME280;37521;52.020;-1.740;2022-12-28T09:01:35;98458.09;;;7.01;100.00
51452;BME280;37521;52.020;-1.740;2022-12-28T09:04:13;98459.13;;;6.98;100.00
51452;BME280;37521;52.020;-1.740;2022-12-28T09:06:42;98456.75;;;6.94;100.00
51452;BME280;37521;52.020;-1.740;2022-12-28T09:09:12;98448.97;;;6.92;100.00
51452;BME280;37521;52.020;-1.740;2022-12-28T09:11:41;98450.00;;;6.90;100.00
51452;BME280;37521;52.020;-1.740;2022-12-28T09:14:11;98444.81;;;6.88;100.00
51452;BME280;37521;52.020;-1.740;2022-12-28T09:16:48;98440.69;;;6.84;100.00
51452;BME280;37521;52.020;-1.740;2022-12-28T09:19:18;98421.56;;;6.82;100.00
51452;BME280;37521;52.020;-1.740;2022-12-28T09:21:46;98433.16;;;6.78;100.00
51452;BME280;37521;52.020;-1.740;2022-12-28T09:24:18;98417.53;;;6.76;100.00
51452;BME280;37521;52.020;-1.740;2022-12-28T09:26:48;98414.22;;;6.73;100.00
51452;BME280;37521;52.020;-1.740;2022-12-28T09:29:19;98416.84;;;6.73;100.00
51452;BME280;37521;52.020;-1.740;2022-12-28T09:31:47;98410.59;;;6.75;100.00
51452;BME280;37521;52.020;-1.740;2022-12-28T09:34:15;98403.63;;;6.74;100.00
51452;BME280;37521;52.020;-1.740;2022-12-28T09:37:05;98403.72;;;6.73;100.00
51452;BME280;37521;52.020;-1.740;2022-12-28T09:39:33;98405.41;;;6.74;100.00
51452;BME280;37521;52.020;-1.740;2022-12-28T09:42:04;98395.00;;;6.72;100.00
51452;BME280;37521;52.020;-1.740;2022-12-28T09:44:43;98388.06;;;6.71;100.00
51452;BME280;37521;52.020;-1.740;2022-12-28T09:47:22;98382.16;;;6.68;100.00
51452;BME280;37521;52.020;-1.740;2022-12-28T09:49:59;98383.16;;;6.65;100.00
51452;BME280;37521;52.020;-1.740;2022-12-28T09:52:35;98377.09;;;6.65;100.00
51452;BME280;37521;52.020;-1.740;2022-12-28T09:55:09;98368.47;;;6.63;100.00
51452;BME280;37521;52.020;-1.740;2022-12-28T09:57:42;98359.81;;;6.61;100.00
51452;BME280;37521;52.020;-1.740;2022-12-28T10:00:16;98347.66;;;6.60;100.00
51452;BME280;37521;52.020;-1.740;2022-12-28T10:02:48;98357.13;;;6.62;100.00
51452;BME280;37521;52.020;-1.740;2022-12-28T10:05:19;98348.41;;;6.62;100.00
51452;BME280;37521;52.020;-1.740;2022-12-28T10:07:52;98341.56;;;6.59;100.00
51452;BME280;37521;52.020;-1.740;2022-12-28T10:10:22;98335.47;;;6.59;100.00
51452;BME280;37521;52.020;-1.740;2022-12-28T10:12:51;98330.22;;;6.59;100.00
51452;BME280;37521;52.020;-1.740;2022-12-28T10:15:21;98319.75;;;6.59;100.00
51452;BME280;37521;52.020;-1.740;2022-12-28T10:17:50;98319.53;;;6.62;100.00
51452;BME280;37521;52.020;-1.740;2022-12-28T10:20:20;98302.91;;;6.63;100.00
51452;BME280;37521;52.020;-1.740;2022-12-28T10:22:54;98301.13;;;6.63;100.00
51452;BME280;37521;52.020;-1.740;2022-12-28T10:25:25;98295.78;;;6.65;100.00
51452;BME280;37521;52.020;-1.740;2022-12-28T10:27:53;98288.66;;;6.67;100.00
51452;BME280;37521;52.020;-1.740;2022-12-28T10:30:24;98281.63;;;6.67;100.00
51452;BME280;37521;52.020;-1.740;2022-12-28T10:32:55;98274.72;;;6.66;100.00
51452;BME280;37521;52.020;-1.740;2022-12-28T10:35:33;98264.31;;;6.65;100.00
51452;BME280;37521;52.020;-1.740;2022-12-28T10:38:06;98260.00;;;6.64;100.00
51452;BME280;37521;52.020;-1.740;2022-12-28T10:40:54;98255.59;;;6.64;100.00
51452;BME280;37521;52.020;-1.740;2022-12-28T10:43:26;98258.31;;;6.63;100.00
51452;BME280;37521;52.020;-1.740;2022-12-28T10:45:57;98227.69;;;6.63;100.00
51452;BME280;37521;52.020;-1.740;2022-12-28T10:48:27;98214.28;;;6.68;100.00
51452;BME280;37521;52.020;-1.740;2022-12-28T10:50:59;98204.75;;;6.67;100.00
51452;BME280;37521;52.020;-1.740;2022-12-28T10:53:32;98196.72;;;6.70;100.00
51452;BME280;37521;52.020;-1.740;2022-12-28T10:56:03;98194.84;;;6.72;100.00
51452;BME280;37521;52.020;-1.740;2022-12-28T10:58:32;98179.84;;;6.74;100.00
51452;BME280;37521;52.020;-1.740;2022-12-28T11:01:04;98181.53;;;6.75;100.00
51452;BME280;37521;52.020;-1.740;2022-12-28T11:03:35;98161.47;;;6.74;100.00
51452;BME280;37521;52.020;-1.740;2022-12-28T11:06:09;98161.31;;;6.77;100.00
51452;BME280;37521;52.020;-1.740;2022-12-28T11:08:41;98139.47;;;6.76;100.00
51452;BME280;37521;52.020;-1.740;2022-12-28T11:11:18;98135.81;;;6.79;100.00
51452;BME280;37521;52.020;-1.740;2022-12-28T11:13:51;98133.94;;;6.81;100.00
51452;BME280;37521;52.020;-1.740;2022-12-28T11:16:20;98120.81;;;6.81;100.00
51452;BME280;37521;52.020;-1.740;2022-12-28T11:18:49;98106.75;;;6.82;100.00
51452;BME280;37521;52.020;-1.740;2022-12-28T11:21:19;98104.16;;;6.82;100.00
51452;BME280;37521;52.020;-1.740;2022-12-28T11:23:50;98091.91;;;6.82;100.00
51452;BME280;37521;52.020;-1.740;2022-12-28T11:26:19;98078.84;;;6.81;100.00
51452;BME280;37521;52.020;-1.740;2022-12-28T11:28:49;98075.28;;;6.82;100.00
51452;BME280;37521;52.020;-1.740;2022-12-28T11:31:22;98068.19;;;6.84;100.00
51452;BME280;37521;52.020;-1.740;2022-12-28T11:33:56;98059.38;;;6.85;100.00
51452;BME280;37521;52.020;-1.740;2022-12-28T11:36:26;98051.50;;;6.85;100.00
51452;BME280;37521;52.020;-1.740;2022-12-28T11:38:56;98046.16;;;6.87;100.00
51452;BME280;37521;52.020;-1.740;2022-12-28T11:41:43;98029.41;;;6.89;100.00
51452;BME280;37521;52.020;-1.740;2022-12-28T11:44:48;98011.03;;;6.89;100.00
51452;BME280;37521;52.020;-1.740;2022-12-28T11:47:23;97996.22;;;6.88;100.00
51452;BME280;37521;52.020;-1.740;2022-12-28T11:53:20;97988.00;;;6.80;100.00
51452;BME280;37521;52.020;-1.740;2022-12-28T11:56:00;97967.94;;;6.79;100.00
51452;BME280;37521;52.020;-1.740;2022-12-28T11:58:44;97959.97;;;6.80;100.00
51452;BME280;37521;52.020;-1.740;2022-12-28T12:04:25;97943.13;;;6.85;100.00
51452;BME280;37521;52.020;-1.740;2022-12-28T12:07:15;97928.22;;;6.85;100.00
51452;BME280;37521;52.020;-1.740;2022-12-28T12:09:46;97922.13;;;6.85;100.00
51452;BME280;37521;52.020;-1.740;2022-12-28T12:12:35;97912.47;;;6.85;100.00
51452;BME280;37521;52.020;-1.740;2022-12-28T12:15:11;97902.00;;;6.85;100.00
51452;BME280;37521;52.020;-1.740;2022-12-28T12:17:44;97903.56;;;6.88;100.00
51452;BME280;37521;52.020;-1.740;2022-12-28T12:20:20;97883.34;;;6.90;100.00
51452;BME280;37521;52.020;-1.740;2022-12-28T12:22:52;97861.28;;;6.92;100.00
51452;BME280;37521;52.020;-1.740;2022-12-28T12:25:25;97866.31;;;6.95;100.00
51452;BME280;37521;52.020;-1.740;2022-12-28T12:28:00;97859.31;;;6.96;100.00
51452;BME280;37521;52.020;-1.740;2022-12-28T12:30:31;97852.06;;;6.99;100.00
51452;BME280;37521;52.020;-1.740;2022-12-28T12:33:02;97838.00;;;7.00;100.00
51452;BME280;37521;52.020;-1.740;2022-12-28T12:35:37;97827.41;;;7.02;100.00
51452;BME280;37521;52.020;-1.740;2022-12-28T12:38:23;97827.09;;;7.06;100.00
51452;BME280;37521;52.020;-1.740;2022-12-28T12:41:19;97805.09;;;7.09;100.00
51452;BME280;37521;52.020;-1.740;2022-12-28T12:44:03;97817.25;;;7.10;100.00
51452;BME280;37521;52.020;-1.740;2022-12-28T12:46:58;97806.66;;;7.12;100.00
51452;BME280;37521;52.020;-1.740;2022-12-28T12:49:41;97793.53;;;7.12;100.00
51452;BME280;37521;52.020;-1.740;2022-12-28T12:52:21;97781.13;;;7.14;100.00
51452;BME280;37521;52.020;-1.740;2022-12-28T12:55:01;97773.16;;;7.15;100.00
51452;BME280;37521;52.020;-1.740;2022-12-28T12:57:36;97767.91;;;7.15;100.00
51452;BME280;37521;52.020;-1.740;2022-12-28T13:00:13;97761.63;;;7.18;100.00
51452;BME280;37521;52.020;-1.740;2022-12-28T13:03:03;97764.97;;;7.20;100.00
51452;BME280;37521;52.020;-1.740;2022-12-28T13:05:38;97750.81;;;7.22;100.00
51452;BME280;37521;52.020;-1.740;2022-12-28T13:08:18;97731.38;;;7.25;100.00
51452;BME280;37521;52.020;-1.740;2022-12-28T13:10:48;97738.31;;;7.26;100.00
51452;BME280;37521;52.020;-1.740;2022-12-28T13:13:22;97725.91;;;7.28;100.00
51452;BME280;37521;52.020;-1.740;2022-12-28T13:15:57;97739.78;;;7.30;100.00
51452;BME280;37521;52.020;-1.740;2022-12-28T13:18:26;97725.72;;;7.31;100.00
51452;BME280;37521;52.020;-1.740;2022-12-28T13:21:17;97724.66;;;7.33;100.00
51452;BME280;37521;52.020;-1.740;2022-12-28T13:23:46;97704.50;;;7.34;100.00
51452;BME280;37521;52.020;-1.740;2022-12-28T13:26:15;97704.28;;;7.37;100.00
51452;BME280;37521;52.020;-1.740;2022-12-28T13:28:49;97706.81;;;7.38;100.00